Flight Track Log - Related Links

Times and Time Zones

All times are in EDT time to prevent confusion due to time zone crossing. See the SAS902 flight status page for this flight to view local times or setup timezone preferences in your user account.

Time Position Orientation Groundspeed Altitude Reporting Facility
EDT Latitude Longitude Course Direction KTS MPH feet Rate Location/Type
Tue 12:39:06 AM 40.6740 -74.1805 206° Southwest 162 186 400  Level FlightAware ADS-B
Tue 12:39:13 AM 40.6693 -74.1836 207° Southwest 156 180 600 1,714 Climbing FlightAware ADS-B
Tue 12:39:20 AM 40.6650 -74.1859 202° Southwest 151 174 800 2,000 Climbing FlightAware ADS-B
Tue 12:39:28 AM 40.6592 -74.1865 184° South 148 170 1,100 1,846 Climbing FlightAware ADS-B
Tue 12:39:33 AM 40.6556 -74.1859 173° South 145 167 1,200 1,333 Climbing FlightAware ADS-B
Tue 12:39:37 AM 40.6530 -74.1859 180° South 147 169 1,300 667 Climbing FlightAware ADS-B
Tue 12:39:42 AM 40.6500 -74.1864 187° South 152 175 1,300 667 Level FlightAware ADS-B
Tue 12:39:46 AM 40.6474 -74.1876 199° South 157 181 1,400 750 Climbing FlightAware ADS-B
Tue 12:39:50 AM 40.6445 -74.1897 209° Southwest 163 188 1,400  Level FlightAware ADS-B
Tue 12:39:54 AM 40.6422 -74.1924 222° Southwest 170 196 1,400 857 Level FlightAware ADS-B
Tue 12:39:57 AM 40.6405 -74.1949 228° Southwest 174 200 1,500 600 Climbing FlightAware ADS-B
Tue 12:40:04 AM 40.6378 -74.2022 244° Southwest 182 209 1,500 500 Level FlightAware ADS-B
Tue 12:40:09 AM 40.6371 -74.2078 261° West 194 223 1,600 667 Climbing FlightAware ADS-B
Tue 12:40:13 AM 40.6372 -74.2126 272° West 200 230 1,600  Level FlightAware ADS-B
Tue 12:40:18 AM 40.6383 -74.2188 283° West 207 238 1,600 750 Level FlightAware ADS-B
Tue 12:40:21 AM 40.6395 -74.2224 294° West 212 244 1,700 750 Climbing FlightAware ADS-B
Tue 12:40:26 AM 40.6421 -74.2278 302° West 217 250 1,700 667 Level FlightAware ADS-B
Tue 12:40:30 AM 40.6447 -74.2314 314° West 221 254 1,800 1,071 Climbing FlightAware ADS-B
Tue 12:40:54 AM 40.6691 -74.2447 338° Northwest 252 290 2,200 1,200 Climbing FlightAware ADS-B
Tue 12:41:10 AM 40.6877 -74.2505 347° North 259 298 2,600 1,946 Climbing FlightAware ADS-B
Tue 12:41:31 AM 40.7133 -74.2579 348° North 259 298 3,400 2,400 Climbing FlightAware ADS-B
Tue 12:41:40 AM 40.7254 -74.2612 348° North 284 327 3,800 2,308 Climbing FlightAware ADS-B
Tue 12:41:44 AM 40.7307 -74.2620 353° North 286 329 3,900 2,250 Climbing FlightAware ADS-B
Tue 12:41:48 AM 40.7363 -74.2620 360° North 288 331 4,100 2,571 Climbing FlightAware ADS-B
Tue 12:41:51 AM 40.7403 -74.2614 North 289 333 4,200 2,571 Climbing FlightAware ADS-B
Tue 12:41:55 AM 40.7457 -74.2598 13° North 290 334 4,400 2,667 Climbing FlightAware ADS-B
Tue 12:42:00 AM 40.7519 -74.2570 19° North 290 334 4,600 2,727 Climbing FlightAware ADS-B
Tue 12:42:06 AM 40.7592 -74.2528 24° Northeast 290 334 4,900 2,571 Climbing FlightAware ADS-B
Tue 12:42:21 AM 40.7775 -74.2410 26° Northeast 292 336 5,500 2,471 Climbing FlightAware ADS-B
Tue 12:42:23 AM 40.7793 -74.2398 27° Northeast 292 336 5,600 2,400 Climbing FlightAware ADS-B
Tue 12:42:31 AM 40.7889 -74.2334 27° Northeast 296 341 5,900 2,000 Climbing FlightAware ADS-B
Tue 12:42:32 AM 40.7901 -74.2326 27° Northeast 296 341 5,900 2,000 Level FlightAware ADS-B
Tue 12:42:34 AM 40.7926 -74.2308 29° Northeast 297 342 6,000 2,400 Climbing FlightAware ADS-B
Tue 12:42:37 AM 40.7961 -74.2278 33° Northeast 299 344 6,100 2,000 Climbing FlightAware ADS-B
Tue 12:42:40 AM 40.7994 -74.2243 39° Northeast 299 344 6,200 1,500 Climbing FlightAware ADS-B
Tue 12:42:41 AM 40.8002 -74.2234 40° Northeast 299 344 6,200 2,400 Level FlightAware ADS-B
Tue 12:42:45 AM 40.8039 -74.2182 47° Northeast 299 344 6,400 3,429 Climbing FlightAware ADS-B
Tue 12:42:48 AM 40.8071 -74.2125 53° Northeast 298 343 6,600 3,000 Climbing FlightAware ADS-B
Tue 12:42:53 AM 40.8105 -74.2059 56° Northeast 297 342 6,800 2,625 Climbing FlightAware ADS-B
Tue 12:43:04 AM 40.8191 -74.1888 56° Northeast 299 344 7,300 2,250 Climbing FlightAware ADS-B
Tue 12:43:09 AM 40.8224 -74.1821 57° Northeast 299 344 7,400 2,087 Climbing FlightAware ADS-B
Tue 12:43:27 AM 40.8367 -74.1550 55° Northeast 301 346 8,100 2,250 Climbing FlightAware ADS-B
Tue 12:43:33 AM 40.8423 -74.1448 54° Northeast 306 352 8,300 2,000 Climbing FlightAware ADS-B
Tue 12:43:42 AM 40.8494 -74.1317 54° Northeast 311 358 8,600 2,400 Climbing FlightAware ADS-B
Tue 12:43:48 AM 40.8550 -74.1214 54° Northeast 311 358 8,900 2,800 Climbing FlightAware ADS-B
Tue 12:43:57 AM 40.8622 -74.1081 54° Northeast 312 359 9,300 2,211 Climbing FlightAware ADS-B
Tue 12:44:07 AM 40.8706 -74.0929 54° Northeast 314 361 9,600 2,000 Climbing FlightAware ADS-B
Tue 12:44:15 AM 40.8772 -74.0807 54° Northeast 315 362 9,900 2,000 Climbing FlightAware ADS-B
Tue 12:44:37 AM 40.8964 -74.0453 54° Northeast 325 374 10,600 1,548 Climbing FlightAware ADS-B
Tue 12:44:46 AM 40.9040 -74.0314 54° Northeast 335 386 10,700 800 Climbing FlightAware ADS-B
Tue 12:45:07 AM 40.9244 -73.9938 54° Northeast 358 412 11,000 968 Climbing FlightAware ADS-B
Tue 12:45:17 AM 40.9337 -73.9765 55° Northeast 364 419 11,200 1,355 Climbing FlightAware ADS-B
Tue 12:45:38 AM 40.9553 -73.9366 54° Northeast 377 434 11,700 1,600 Climbing FlightAware ADS-B
Tue 12:45:47 AM 40.9643 -73.9199 54° Northeast 379 436 12,000 2,167 Climbing FlightAware ADS-B
Tue 12:46:14 AM 40.9913 -73.8699 54° Northeast 383 441 13,000 2,093 Climbing FlightAware ADS-B
Tue 12:46:30 AM 41.0082 -73.8385 54° Northeast 386 444 13,500 2,000 Climbing FlightAware ADS-B
Tue 12:46:44 AM 41.0225 -73.8121 54° Northeast 387 445 14,000 1,909 Climbing FlightAware ADS-B
Tue 12:47:14 AM 41.0540 -73.7536 54° Northeast 396 456 14,900 1,770 Climbing FlightAware ADS-B
Tue 12:47:45 AM 41.0875 -73.6911 55° Northeast 404 465 15,800 1,180 Climbing FlightAware ADS-B
Tue 12:48:15 AM 41.1202 -73.6302 55° Northeast 408 470 16,100 689 Climbing FlightAware ADS-B
Tue 12:48:46 AM 41.1537 -73.5675 55° Northeast 409 471 16,500 1,015 Climbing FlightAware ADS-B
Tue 12:49:20 AM 41.1912 -73.4972 55° Northeast 414 476 17,200 1,556 Climbing FlightAware ADS-B
Tue 12:49:40 AM 41.2140 -73.4563 53° Northeast 416 479 17,900 2,063 Climbing FlightAware ADS-B
Tue 12:49:52 AM 41.2296 -73.4340 47° Northeast 417 480 18,300 1,857 Climbing FlightAware ADS-B
Tue 12:50:22 AM 41.2724 -73.3809 43° Northeast 422 486 19,200 1,869 Climbing FlightAware ADS-B
Tue 12:50:53 AM 41.3162 -73.3260 43° Northeast 422 486 20,200 1,869 Climbing FlightAware ADS-B
Tue 12:51:23 AM 41.3597 -73.2715 43° Northeast 425 489 21,100 1,700 Climbing FlightAware ADS-B
Tue 12:51:53 AM 41.4029 -73.2173 43° Northeast 431 496 21,900 1,377 Climbing FlightAware ADS-B
Tue 12:52:24 AM 41.4475 -73.1613 43° Northeast 439 505 22,500 1,325 Climbing FlightAware ADS-B
Tue 12:53:10 AM 41.5160 -73.0740 44° Northeast 446 513 23,600 1,432 Climbing FlightAware ADS-B
Tue 12:53:52 AM 41.5740 -72.9950 46° Northeast 448 516 24,600 986 Climbing FlightAware ADS-B
Tue 12:54:23 AM 41.6130 -72.9390 47° Northeast 448 516 24,800 1,200 Climbing FlightAware ADS-B
Tue 12:54:42 AM 41.6462 -72.8886 49° Northeast 457 526 25,600 900 Climbing FlightAware ADS-B
Tue 12:55:43 AM 41.7250 -72.7750 47° Northeast 459 528 26,000 772 Climbing FlightAware ADS-B
Tue 12:56:23 AM 41.7860 -72.6870 47° Northeast 470 541 26,900 701 Climbing FlightAware ADS-B
Tue 12:57:00 AM 41.8330 -72.6190 47° Northeast 470 541 26,900  Level FlightAware ADS-B
Tue 12:57:48 AM 41.8930 -72.5320 47° Northeast 470 541 26,900  Level FlightAware ADS-B
Tue 12:58:24 AM 41.9380 -72.4670 47° Northeast 470 541 26,900 2,357 Level FlightAware ADS-B
Tue 12:59:12 AM 42.0490 -72.3020 48° Northeast 504 580 30,200 2,659 Climbing FlightAware ADS-B
Tue 12:59:52 AM 42.1160 -72.2040 47° Northeast 507 583 30,800 847 Climbing FlightAware ADS-B
Tue 01:00:37 AM 42.1860 -72.1000 48° Northeast 512 589 31,400 1,125 Climbing FlightAware ADS-B
Tue 01:01:12 AM 42.2450 -72.0140 47° Northeast 510 587 32,300 1,280 Climbing FlightAware ADS-B
Tue 01:01:52 AM 42.3060 -71.9220 48° Northeast 509 586 33,000 1,125 Climbing FlightAware ADS-B
Tue 01:02:32 AM 42.3720 -71.8250 47° Northeast 507 583 33,800 1,200 Climbing FlightAware ADS-B
Tue 01:03:12 AM 42.4340 -71.7310 48° Northeast 510 587 34,600 1,050 Climbing FlightAware ADS-B
Tue 01:03:52 AM 42.4970 -71.6360 48° Northeast 507 583 35,200 706 Climbing FlightAware ADS-B
Tue 01:04:37 AM 42.5690 -71.5290 48° Northeast 511 588 35,600 706 Climbing FlightAware ADS-B
Tue 01:05:17 AM 42.6320 -71.4340 48° Northeast 509 586 36,200 880 Climbing FlightAware ADS-B
Tue 01:05:52 AM 42.6860 -71.3510 48° Northeast 507 583 36,700 632 Climbing FlightAware ADS-B
Tue 01:06:33 AM 42.7490 -71.2560 48° Northeast 508 585 37,000 225 Climbing FlightAware ADS-B
Tue 01:07:12 AM 42.8110 -71.1610 48° Northeast 512 589 37,000  Level FlightAware ADS-B
Tue 01:07:59 AM 42.8840 -71.0490 48° Northeast 528 608 37,000  Level FlightAware ADS-B
Tue 01:08:38 AM 42.9510 -70.9470 48° Northeast 523 602 37,000  Level FlightAware ADS-B
Tue 01:09:22 AM 43.0180 -70.8430 49° Northeast 530 610 37,000  Level FlightAware ADS-B
Tue 01:10:04 AM 43.0900 -70.7320 48° Northeast 531 611 37,000  Level FlightAware ADS-B
Tue 01:10:40 AM 43.1480 -70.6410 49° Northeast 532 612 37,000  Level FlightAware ADS-B
Tue 01:11:20 AM 43.2140 -70.5390 48° Northeast 534 615 37,000  Level FlightAware ADS-B
Tue 01:12:01 AM 43.2790 -70.4370 49° Northeast 536 617 37,000  Level FlightAware ADS-B
Tue 01:12:46 AM 43.3470 -70.3310 49° Northeast 538 619 37,000  Level FlightAware ADS-B
Tue 01:13:42 AM 43.4450 -70.1770 49° Northeast 538 619 37,000  Level FlightAware ADS-B
Tue 01:14:23 AM 43.5130 -70.0690 49° Northeast 537 618 37,000  Level FlightAware ADS-B
Tue 01:15:07 AM 43.5840 -69.9570 49° Northeast 537 618 37,000  Level FlightAware ADS-B
Tue 01:15:39 AM 43.6360 -69.8720 50° Northeast 537 618 37,000  Level FlightAware ADS-B
Tue 01:16:23 AM 43.7060 -69.7600 49° Northeast 538 619 37,000  Level FlightAware ADS-B
Tue 01:17:03 AM 43.7710 -69.6560 49° Northeast 539 620 37,000  Level FlightAware ADS-B
Tue 01:17:39 AM 43.8310 -69.5600 49° Northeast 538 619 37,000  Level FlightAware ADS-B
Tue 01:18:19 AM 43.8950 -69.4560 49° Northeast 536 617 37,000  Level FlightAware ADS-B
Tue 01:19:05 AM 43.9700 -69.3350 49° Northeast 535 616 37,000  Level FlightAware ADS-B
Tue 01:19:35 AM 44.0160 -69.2590 50° Northeast 534 615 37,000  Level FlightAware ADS-B
Tue 01:20:34 AM 44.0980 -69.1250 50° Northeast 533 613 37,000  Level FlightAware ADS-B
Tue 01:21:28 AM 44.1950 -68.9660 50° Northeast 528 608 37,000  Level FlightAware ADS-B
Tue 01:22:14 AM 44.2690 -68.8430 50° Northeast 529 609 37,000  Level FlightAware ADS-B
Tue 01:22:54 AM 44.3300 -68.7430 50° Northeast 528 608 37,000  Level FlightAware ADS-B
Tue 01:23:35 AM 44.3960 -68.6320 50° Northeast 533 613 37,000  Level FlightAware ADS-B
Tue 01:24:14 AM 44.4570 -68.5300 50° Northeast 532 612 37,000  Level FlightAware ADS-B
Tue 01:24:55 AM 44.5220 -68.4210 50° Northeast 531 611 37,000  Level FlightAware ADS-B
Tue 01:25:34 AM 44.5830 -68.3200 50° Northeast 531 611 37,000  Level FlightAware ADS-B
Tue 01:26:15 AM 44.6480 -68.2090 51° Northeast 531 611 37,000  Level FlightAware ADS-B
Tue 01:26:51 AM 44.7020 -68.1180 50° Northeast 530 610 37,000  Level FlightAware ADS-B
Tue 01:27:34 AM 44.7710 -68.0000 50° Northeast 530 610 37,000  Level FlightAware ADS-B
Tue 01:28:14 AM 44.8340 -67.8930 50° Northeast 530 610 37,000  Level FlightAware ADS-B
Tue 01:29:00 AM 44.9050 -67.7700 51° Northeast 530 610 37,000  Level FlightAware ADS-B
Tue 01:29:41 AM 44.9680 -67.6620 50° Northeast 529 609 37,000  Level FlightAware ADS-B
Tue 01:30:25 AM 45.0370 -67.5420 51° Northeast 524 603 37,000  Level FlightAware ADS-B
Tue 01:31:05 AM 45.0980 -67.4370 51° Northeast 525 604 37,000  Level FlightAware ADS-B
Tue 01:31:40 AM 45.1530 -67.3410 51° Northeast 526 605 37,000  Level FlightAware ADS-B
Tue 01:32:25 AM 45.2220 -67.2200 51° Northeast 533 613 37,000  Level FlightAware ADS-B
Tue 01:33:05 AM 45.2850 -67.1100 51° Northeast 526 605 37,000  Level FlightAware ADS-B
Tue 01:33:40 AM 45.3380 -67.0170 51° Northeast 525 604 37,000  Level FlightAware ADS-B
Tue 01:34:20 AM 45.3990 -66.9080 51° Northeast 524 603 37,000  Level FlightAware ADS-B
Tue 01:35:05 AM 45.4670 -66.7870 51° Northeast 525 604 37,000  Level FlightAware ADS-B
Tue 01:35:41 AM 45.5220 -66.6900 51° Northeast 523 602 37,000  Level FlightAware ADS-B
Tue 01:36:21 AM 45.5820 -66.5820 52° Northeast 523 602 37,000  Level FlightAware ADS-B
Tue 01:37:01 AM 45.6430 -66.4720 52° Northeast 523 602 37,000  Level FlightAware ADS-B
Tue 01:37:45 AM 45.7100 -66.3500 52° Northeast 524 603 37,000  Level FlightAware ADS-B
Tue 01:38:25 AM 45.7710 -66.2410 51° Northeast 527 606 37,000  Level FlightAware ADS-B
Tue 01:39:10 AM 45.8410 -66.1140 52° Northeast 529 609 37,000  Level FlightAware ADS-B
Tue 01:39:45 AM 45.8930 -66.0180 52° Northeast 529 609 37,000  Level FlightAware ADS-B
Tue 01:40:26 AM 45.9540 -65.9050 52° Northeast 526 605 37,000  Level FlightAware ADS-B
Tue 01:41:10 AM 46.0220 -65.7820 51° Northeast 530 610 37,000  Level FlightAware ADS-B
Tue 01:41:46 AM 46.0690 -65.6940 52° Northeast 530 610 37,000  Level FlightAware ADS-B
Tue 01:42:32 AM 46.1450 -65.5530 52° Northeast 528 608 37,000  Level FlightAware ADS-B
Tue 01:43:11 AM 46.1950 -65.4610 52° Northeast 528 608 37,000  Level FlightAware ADS-B
Tue 01:43:59 AM 46.2560 -65.3480 52° Northeast 528 608 37,000  Level FlightAware ADS-B
Tue 01:44:35 AM 46.3020 -65.2620 52° Northeast 528 608 37,000  Level FlightAware ADS-B
Tue 01:45:12 AM 46.3490 -65.1750 52° Northeast 528 608 37,000  Level FlightAware ADS-B
Tue 01:45:48 AM 46.3950 -65.0890 52° Northeast 528 608 37,000  Level FlightAware ADS-B
Tue 01:46:37 AM 46.4580 -64.9730 52° Northeast 528 608 37,000  Level FlightAware ADS-B
Tue 01:47:13 AM 46.5040 -64.8880 52° Northeast 528 608 37,000  Level FlightAware ADS-B
Tue 01:48:01 AM 46.5650 -64.7730 52° Northeast 528 608 37,000  Level FlightAware ADS-B
Tue 01:48:37 AM 46.6110 -64.6880 52° Northeast 528 608 37,000  Level FlightAware ADS-B
Tue 01:49:25 AM 46.6730 -64.5730 52° Northeast 528 608 37,000  Level FlightAware ADS-B
Tue 01:50:01 AM 46.7190 -64.4870 52° Northeast 528 608 37,000  Level FlightAware ADS-B
Tue 01:50:49 AM 46.7800 -64.3730 52° Northeast 528 608 37,000  Level FlightAware ADS-B
Tue 01:51:26 AM 46.8270 -64.2840 52° Northeast 528 608 37,000  Level FlightAware ADS-B
Tue 01:52:15 AM 46.8900 -64.1670 52° Northeast 528 608 37,000  Level FlightAware ADS-B
Tue 01:53:44 AM 47.1167 -63.6667 52° Northeast 510 587 37,000  Level Moncton Center
Tue 01:54:44 AM 47.2000 -63.5167 51° Northeast 510 587 37,000  Level Moncton Center
Tue 01:55:44 AM 47.2833 -63.3333 56° Northeast 510 587 37,000  Level Moncton Center
Tue 01:56:44 AM 47.3667 -63.1667 54° Northeast 510 587 37,000  Level Moncton Center
Tue 01:57:44 AM 47.4333 -62.9833 62° Northeast 510 587 37,000  Level Moncton Center
Tue 01:58:44 AM 47.5167 -62.8167 53° Northeast 510 587 37,000  Level Moncton Center
Tue 01:59:44 AM 47.6000 -62.6333 56° Northeast 510 587 37,000  Level Moncton Center
Tue 02:00:44 AM 47.6833 -62.4833 50° Northeast 510 587 37,000  Level Moncton Center
Tue 02:01:44 AM 47.7667 -62.3000 56° Northeast 510 587 37,000  Level Moncton Center
Tue 02:02:44 AM 47.8667 -62.1333 48° Northeast 510 587 37,000  Level Moncton Center
Tue 02:03:44 AM 47.9333 -61.9500 61° Northeast 510 587 37,000  Level Moncton Center
Tue 02:04:44 AM 48.0167 -61.7667 56° Northeast 510 587 37,000  Level Moncton Center
Tue 02:05:44 AM 48.1000 -61.5833 56° Northeast 510 587 37,000  Level Moncton Center
Tue 02:06:44 AM 48.1833 -61.4333 50° Northeast 510 587 37,000  Level Moncton Center
Tue 02:07:44 AM 48.2667 -61.2500 56° Northeast 510 587 37,000  Level Moncton Center
Tue 02:08:44 AM 48.3333 -61.0667 61° Northeast 510 587 37,000  Level Moncton Center
Tue 02:09:44 AM 48.4167 -60.9167 50° Northeast 510 587 37,000  Level Moncton Center
Tue 02:10:44 AM 48.5167 -60.7333 50° Northeast 510 587 37,000  Level Moncton Center
Tue 02:16:19 AM 48.9480 -59.7740 50° Northeast 513 590 37,000  Level FlightAware ADS-B
Tue 02:16:55 AM 48.9880 -59.6820 56° Northeast 513 590 37,000  Level FlightAware ADS-B
Tue 02:17:43 AM 49.0420 -59.5600 56° Northeast 513 590 37,000  Level FlightAware ADS-B
Tue 02:18:30 AM 49.1230 -59.3670 57° Northeast 511 588 37,000  Level FlightAware ADS-B
Tue 02:19:11 AM 49.1800 -59.2340 57° Northeast 512 589 37,000  Level FlightAware ADS-B
Tue 02:19:49 AM 49.2320 -59.1120 57° Northeast 512 589 37,000  Level FlightAware ADS-B
Tue 02:20:35 AM 49.2840 -58.9870 57° Northeast 512 589 37,000  Level FlightAware ADS-B
Tue 02:21:30 AM 49.3550 -58.8190 57° Northeast 512 589 37,000  Level FlightAware ADS-B
Tue 02:22:09 AM 49.4090 -58.6900 57° Northeast 514 592 37,000  Level FlightAware ADS-B
Tue 02:22:54 AM 49.4640 -58.5440 60° Northeast 522 601 37,000  Level FlightAware ADS-B
Tue 02:23:35 AM 49.5080 -58.4140 62° Northeast 521 600 37,000  Level FlightAware ADS-B
Tue 02:24:19 AM 49.5580 -58.2690 62° Northeast 520 598 37,000  Level FlightAware ADS-B
Tue 02:25:00 AM 49.6050 -58.1350 62° Northeast 520 598 37,000  Level FlightAware ADS-B
Tue 02:25:39 AM 49.6490 -58.0060 62° Northeast 522 601 37,000  Level FlightAware ADS-B
Tue 02:26:25 AM 49.6990 -57.8610 62° Northeast 522 601 37,000  Level FlightAware ADS-B
Tue 02:27:05 AM 49.7460 -57.7240 62° Northeast 524 603 37,000  Level FlightAware ADS-B
Tue 02:27:50 AM 49.7950 -57.5780 62° Northeast 526 605 37,000  Level FlightAware ADS-B
Tue 02:28:30 AM 49.8410 -57.4430 62° Northeast 526 605 37,000  Level FlightAware ADS-B
Tue 02:29:10 AM 49.8860 -57.3100 62° Northeast 528 608 37,000  Level FlightAware ADS-B
Tue 02:29:54 AM 49.9340 -57.1660 63° Northeast 530 610 37,000  Level FlightAware ADS-B
Tue 02:30:39 AM 49.9830 -57.0160 63° Northeast 531 611 37,000  Level FlightAware ADS-B
Tue 02:31:14 AM 50.0260 -56.8870 63° Northeast 532 612 37,000  Level FlightAware ADS-B
Tue 02:31:54 AM 50.0710 -56.7510 63° Northeast 534 615 37,000  Level FlightAware ADS-B
Tue 02:32:34 AM 50.1160 -56.6140 63° Northeast 535 616 37,000  Level FlightAware ADS-B
Tue 02:33:14 AM 50.1600 -56.4760 63° Northeast 536 617 37,000  Level FlightAware ADS-B
Tue 02:33:49 AM 50.2000 -56.3540 63° Northeast 534 615 37,000  Level FlightAware ADS-B
Tue 02:34:29 AM 50.2430 -56.2190 63° Northeast 533 613 37,000  Level FlightAware ADS-B
Tue 02:35:14 AM 50.2900 -56.0720 63° Northeast 530 610 37,000  Level FlightAware ADS-B
Tue 02:36:00 AM 50.3420 -55.9070 64° Northeast 530 610 37,000  Level FlightAware ADS-B
Tue 02:36:40 AM 50.3850 -55.7720 63° Northeast 529 609 37,000  Level FlightAware ADS-B
Tue 02:37:24 AM 50.4330 -55.6200 64° Northeast 532 612 37,000  Level FlightAware ADS-B
Tue 02:38:05 AM 50.4770 -55.4790 64° Northeast 532 612 37,000  Level FlightAware ADS-B
Tue 02:38:34 AM 50.5070 -55.3830 64° Northeast 532 612 37,000  Level FlightAware ADS-B
Tue 02:39:20 AM 50.5560 -55.2230 64° Northeast 535 616 37,000  Level FlightAware ADS-B
Tue 02:40:04 AM 50.6060 -55.0610 64° Northeast 532 612 37,000  Level FlightAware ADS-B
Tue 02:40:39 AM 50.6420 -54.9410 65° Northeast 531 611 37,000  Level FlightAware ADS-B
Tue 02:41:19 AM 50.6840 -54.8060 64° Northeast 533 613 37,000  Level FlightAware ADS-B
Tue 02:42:05 AM 50.7330 -54.6420 65° Northeast 534 615 37,000  Level FlightAware ADS-B
Tue 02:42:35 AM 50.7650 -54.5370 64° Northeast 535 616 37,000  Level FlightAware ADS-B
Tue 02:43:20 AM 50.8100 -54.3850 65° Northeast 533 613 37,000  Level FlightAware ADS-B
Tue 02:43:59 AM 50.8540 -54.2380 65° Northeast 534 615 37,000  Level FlightAware ADS-B
Tue 02:44:44 AM 50.8970 -54.0910 65° Northeast 537 618 37,000 444 Level FlightAware ADS-B
Tue 02:45:20 AM 50.9370 -53.9550 65° Northeast 536 617 37,600 625 Climbing FlightAware ADS-B
Tue 02:46:20 AM 50.9960 -53.7500 65° Northeast 540 621 38,000 310 Climbing FlightAware ADS-B
Tue 02:47:16 AM 51.0520 -53.5570 65° Northeast 542 624 38,200 452 Climbing FlightAware ADS-B
Tue 02:47:53 AM 51.0960 -53.4040 65° Northeast 542 624 38,700 553 Climbing FlightAware ADS-B
Tue 02:48:32 AM 51.1370 -53.2610 65° Northeast 544 626 38,900 228 Climbing FlightAware ADS-B
Tue 02:49:12 AM 51.1770 -53.1180 66° East 539 620 39,000 74 Climbing FlightAware ADS-B
Tue 02:49:53 AM 51.2130 -52.9910 66° East 537 618 39,000  Level FlightAware ADS-B
Tue 02:50:41 AM 51.2540 -52.8430 66° East 537 618 39,000  Level FlightAware ADS-B
Tue 02:51:23 AM 51.3080 -52.6500 66° East 533 613 39,000  Level FlightAware ADS-B
Tue 02:52:01 AM 51.3400 -52.5310 67° East 532 612 39,000  Level FlightAware ADS-B
Tue 02:52:37 AM 51.3690 -52.4200 67° East 532 612 39,000  Level FlightAware ADS-B
Tue 02:53:26 AM 51.4090 -52.2680 67° East 532 612 39,000  Level FlightAware ADS-B
Tue 02:54:02 AM 51.4390 -52.1570 67° East 532 612 39,000  Level FlightAware ADS-B
Tue 02:54:42 AM 51.5000 -51.9460 65° Northeast 539 620 39,000  Level FlightAware ADS-B
Tue 02:55:18 AM 51.5310 -51.8340 66° East 539 620 39,000  Level FlightAware ADS-B
Tue 02:56:04 AM 51.5710 -51.6910 66° East 539 620 39,000  Level FlightAware ADS-B
Tue 02:56:41 AM 51.6030 -51.5760 66° East 539 620 39,000  Level FlightAware ADS-B
Tue 02:57:29 AM 51.6440 -51.4260 66° East 539 620 39,000  Level FlightAware ADS-B
Tue 02:58:05 AM 51.6750 -51.3130 66° East 539 620 39,000  Level FlightAware ADS-B
Tue 02:58:53 AM 51.7160 -51.1630 66° East 539 620 39,000  Level FlightAware ADS-B
Tue 02:59:42 AM 51.7590 -51.0100 66° East 539 620 39,000  Level FlightAware ADS-B
Tue 03:00:18 AM 51.7900 -50.8980 66° East 539 620 39,000  Level FlightAware ADS-B
Tue 03:01:06 AM 51.8310 -50.7470 66° East 539 620 39,000  Level FlightAware ADS-B
Tue 03:01:42 AM 51.8620 -50.6340 66° East 539 620 39,000  Level FlightAware ADS-B
Tue 03:02:18 AM 51.8930 -50.5210 66° East 539 620 39,000  Level FlightAware ADS-B
Tue 03:03:08 AM 51.9360 -50.3640 66° East 539 620 39,000  Level FlightAware ADS-B
Tue 03:03:44 AM 51.9670 -50.2510 66° East 539 620 39,000  Level FlightAware ADS-B
Tue 03:06:00 AM 52.0738 -49.7976 59° Northeast  Level FlightAware Approximate
Tue 03:07:00 AM 52.1409 -49.6120 59° Northeast  Level FlightAware Approximate
Tue 03:08:00 AM 52.2078 -49.4257 60° Northeast  Level FlightAware Approximate
Tue 03:09:00 AM 52.2744 -49.2389 60° Northeast  Level FlightAware Approximate
Tue 03:10:00 AM 52.3406 -49.0516 60° Northeast  Level FlightAware Approximate
Tue 03:11:00 AM 52.4066 -48.8636 60° Northeast  Level FlightAware Approximate
Tue 03:12:00 AM 52.4723 -48.6751 60° Northeast  Level FlightAware Approximate
Tue 03:13:00 AM 52.5377 -48.4861 60° Northeast  Level FlightAware Approximate
Tue 03:14:00 AM 52.6028 -48.2965 60° Northeast  Level FlightAware Approximate
Tue 03:15:00 AM 52.6675 -48.1063 61° Northeast  Level FlightAware Approximate
Tue 03:16:00 AM 52.7320 -47.9156 61° Northeast  Level FlightAware Approximate
Tue 03:17:00 AM 52.7962 -47.7243 61° Northeast  Level FlightAware Approximate
Tue 03:18:00 AM 52.8601 -47.5324 61° Northeast  Level FlightAware Approximate
Tue 03:19:00 AM 52.9236 -47.3400 61° Northeast  Level FlightAware Approximate
Tue 03:20:00 AM 52.9868 -47.1469 61° Northeast  Level FlightAware Approximate
Tue 03:21:00 AM 53.0498 -46.9534 62° Northeast  Level FlightAware Approximate
Tue 03:22:00 AM 53.1124 -46.7593 62° Northeast  Level FlightAware Approximate
Tue 03:23:00 AM 53.1747 -46.5646 62° Northeast  Level FlightAware Approximate
Tue 03:24:00 AM 53.2366 -46.3693 62° Northeast  Level FlightAware Approximate
Tue 03:25:00 AM 53.2983 -46.1735 62° Northeast  Level FlightAware Approximate
Tue 03:26:00 AM 53.3596 -45.9771 62° Northeast  Level FlightAware Approximate
Tue 03:27:00 AM 53.4206 -45.7802 62° Northeast  Level FlightAware Approximate
Tue 03:28:00 AM 53.4813 -45.5827 63° Northeast  Level FlightAware Approximate
Tue 03:29:00 AM 53.5417 -45.3846 63° Northeast  Level FlightAware Approximate
Tue 03:30:00 AM 53.6017 -45.1860 63° Northeast  Level FlightAware Approximate
Tue 03:31:00 AM 53.6614 -44.9868 63° Northeast  Level FlightAware Approximate
Tue 03:32:00 AM 53.7208 -44.7870 63° Northeast  Level FlightAware Approximate
Tue 03:33:00 AM 53.7798 -44.5867 63° Northeast  Level FlightAware Approximate
Tue 03:34:00 AM 53.8385 -44.3858 64° Northeast  Level FlightAware Approximate
Tue 03:35:00 AM 53.8969 -44.1843 64° Northeast  Level FlightAware Approximate
Tue 03:36:00 AM 53.9549 -43.9823 64° Northeast  Level FlightAware Approximate
Tue 03:37:00 AM 54.0126 -43.7797 64° Northeast  Level FlightAware Approximate
Tue 03:38:00 AM 54.0699 -43.5766 64° Northeast  Level FlightAware Approximate
Tue 03:39:00 AM 54.1269 -43.3729 64° Northeast  Level FlightAware Approximate
Tue 03:40:00 AM 54.1835 -43.1686 65° Northeast  Level FlightAware Approximate
Tue 03:41:00 AM 54.2398 -42.9638 65° Northeast  Level FlightAware Approximate
Tue 03:42:00 AM 54.2958 -42.7584 65° Northeast  Level FlightAware Approximate
Tue 03:43:00 AM 54.3514 -42.5525 65° Northeast  Level FlightAware Approximate
Tue 03:44:00 AM 54.4067 -42.3460 65° Northeast  Level FlightAware Approximate
Tue 03:45:00 AM 54.4616 -42.1389 65° Northeast  Level FlightAware Approximate
Tue 03:46:00 AM 54.5161 -41.9313 66° East  Level FlightAware Approximate
Tue 03:47:00 AM 54.5703 -41.7232 66° East  Level FlightAware Approximate
Tue 03:48:00 AM 54.6242 -41.5145 66° East  Level FlightAware Approximate
Tue 03:49:00 AM 54.6776 -41.3052 66° East  Level FlightAware Approximate
Tue 03:50:00 AM 54.7308 -41.0954 66° East  Level FlightAware Approximate
Tue 03:51:00 AM 54.7835 -40.8850 66° East  Level FlightAware Approximate
Tue 03:52:00 AM 54.8359 -40.6741 67° East  Level FlightAware Approximate
Tue 03:53:00 AM 54.8879 -40.4627 67° East  Level FlightAware Approximate
Tue 03:54:00 AM 54.9396 -40.2507 67° East  Level FlightAware Approximate
Tue 03:55:00 AM 54.9908 -40.0382 67° East  Level FlightAware Approximate
Tue 03:56:00 AM 55.0585 -39.8403 57° Northeast  Level FlightAware Approximate
Tue 03:57:00 AM 55.1295 -39.6451 57° Northeast  Level FlightAware Approximate
Tue 03:58:00 AM 55.2001 -39.4491 58° Northeast  Level FlightAware Approximate
Tue 03:59:00 AM 55.2704 -39.2525 58° Northeast  Level FlightAware Approximate
Tue 04:00:00 AM 55.3405 -39.0552 58° Northeast  Level FlightAware Approximate
Tue 04:01:00 AM 55.4102 -38.8572 58° Northeast  Level FlightAware Approximate
Tue 04:02:00 AM 55.4795 -38.6585 58° Northeast  Level FlightAware Approximate
Tue 04:03:00 AM 55.5486 -38.4591 58° Northeast  Level FlightAware Approximate
Tue 04:04:00 AM 55.6173 -38.2590 59° Northeast  Level FlightAware Approximate
Tue 04:05:00 AM 55.6857 -38.0582 59° Northeast  Level FlightAware Approximate
Tue 04:06:00 AM 55.7538 -37.8566 59° Northeast  Level FlightAware Approximate
Tue 04:07:00 AM 55.8216 -37.6544 59° Northeast  Level FlightAware Approximate
Tue 04:08:00 AM 55.8890 -37.4515 59° Northeast  Level FlightAware Approximate
Tue 04:09:00 AM 55.9561 -37.2479 59° Northeast  Level FlightAware Approximate
Tue 04:10:00 AM 56.0228 -37.0435 60° Northeast  Level FlightAware Approximate
Tue 04:11:00 AM 56.0892 -36.8385 60° Northeast  Level FlightAware Approximate
Tue 04:12:00 AM 56.1553 -36.6328 60° Northeast  Level FlightAware Approximate
Tue 04:13:00 AM 56.2210 -36.4263 60° Northeast  Level FlightAware Approximate
Tue 04:14:00 AM 56.2864 -36.2192 60° Northeast  Level FlightAware Approximate
Tue 04:15:00 AM 56.3514 -36.0113 60° Northeast  Level FlightAware Approximate
Tue 04:16:00 AM 56.4161 -35.8027 61° Northeast  Level FlightAware Approximate
Tue 04:17:00 AM 56.4804 -35.5934 61° Northeast  Level FlightAware Approximate
Tue 04:18:00 AM 56.5444 -35.3835 61° Northeast  Level FlightAware Approximate
Tue 04:19:00 AM 56.6080 -35.1728 61° Northeast  Level FlightAware Approximate
Tue 04:20:00 AM 56.6712 -34.9613 61° Northeast  Level FlightAware Approximate
Tue 04:21:00 AM 56.7341 -34.7492 62° Northeast  Level FlightAware Approximate
Tue 04:22:00 AM 56.7967 -34.5364 62° Northeast  Level FlightAware Approximate
Tue 04:23:00 AM 56.8589 -34.3229 62° Northeast  Level FlightAware Approximate
Tue 04:24:00 AM 56.9207 -34.1086 62° Northeast  Level FlightAware Approximate
Tue 04:25:00 AM 56.9821 -33.8937 62° Northeast  Level FlightAware Approximate
Tue 04:26:00 AM 57.0432 -33.6780 62° Northeast  Level FlightAware Approximate
Tue 04:27:00 AM 57.1039 -33.4617 63° Northeast  Level FlightAware Approximate
Tue 04:28:00 AM 57.1642 -33.2446 63° Northeast  Level FlightAware Approximate
Tue 04:29:00 AM 57.2242 -33.0268 63° Northeast  Level FlightAware Approximate
Tue 04:30:00 AM 57.2838 -32.8083 63° Northeast  Level FlightAware Approximate
Tue 04:31:00 AM 57.3430 -32.5891 63° Northeast  Level FlightAware Approximate
Tue 04:32:00 AM 57.4018 -32.3692 64° Northeast  Level FlightAware Approximate
Tue 04:33:00 AM 57.4602 -32.1486 64° Northeast  Level FlightAware Approximate
Tue 04:34:00 AM 57.5182 -31.9273 64° Northeast  Level FlightAware Approximate
Tue 04:35:00 AM 57.5759 -31.7053 64° Northeast  Level FlightAware Approximate
Tue 04:36:00 AM 57.6332 -31.4826 64° Northeast  Level FlightAware Approximate
Tue 04:37:00 AM 57.6900 -31.2591 64° Northeast  Level FlightAware Approximate
Tue 04:38:00 AM 57.7465 -31.0350 65° Northeast  Level FlightAware Approximate
Tue 04:39:00 AM 57.8026 -30.8102 65° Northeast  Level FlightAware Approximate
Tue 04:40:00 AM 57.8583 -30.5847 65° Northeast  Level FlightAware Approximate
Tue 04:41:00 AM 57.9136 -30.3585 65° Northeast  Level FlightAware Approximate
Tue 04:42:00 AM 57.9684 -30.1316 65° Northeast  Level FlightAware Approximate
Tue 04:43:00 AM 58.0238 -29.9048 65° Northeast  Level FlightAware Approximate
Tue 04:44:00 AM 58.0801 -29.6784 65° Northeast  Level FlightAware Approximate
Tue 04:45:00 AM 58.1359 -29.4513 65° Northeast  Level FlightAware Approximate
Tue 04:46:00 AM 58.1914 -29.2234 65° Northeast  Level FlightAware Approximate
Tue 04:47:00 AM 58.2464 -28.9949 65° Northeast  Level FlightAware Approximate
Tue 04:48:00 AM 58.3010 -28.7656 66° East  Level FlightAware Approximate
Tue 04:49:00 AM 58.3553 -28.5357 66° East  Level FlightAware Approximate
Tue 04:50:00 AM 58.4091 -28.3050 66° East  Level FlightAware Approximate
Tue 04:51:00 AM 58.4625 -28.0737 66° East  Level FlightAware Approximate
Tue 04:52:00 AM 58.5154 -27.8416 66° East  Level FlightAware Approximate
Tue 04:53:00 AM 58.5680 -27.6089 67° East  Level FlightAware Approximate
Tue 04:54:00 AM 58.6201 -27.3754 67° East  Level FlightAware Approximate
Tue 04:55:00 AM 58.6718 -27.1413 67° East  Level FlightAware Approximate
Tue 04:56:00 AM 58.7231 -26.9064 67° East  Level FlightAware Approximate
Tue 04:57:00 AM 58.7740 -26.6709 67° East  Level FlightAware Approximate
Tue 04:58:00 AM 58.8244 -26.4347 68° East  Level FlightAware Approximate
Tue 04:59:00 AM 58.8744 -26.1978 68° East  Level FlightAware Approximate
Tue 05:00:00 AM 58.9239 -25.9602 68° East  Level FlightAware Approximate
Tue 05:01:00 AM 58.9730 -25.7219 68° East  Level FlightAware Approximate
Tue 05:02:00 AM 59.0217 -25.4830 68° East  Level FlightAware Approximate
Tue 05:03:00 AM 59.0700 -25.2433 69° East  Level FlightAware Approximate
Tue 05:04:00 AM 59.1177 -25.0030 69° East  Level FlightAware Approximate
Tue 05:05:00 AM 59.1651 -24.7621 69° East  Level FlightAware Approximate
Tue 05:06:00 AM 59.2120 -24.5205 69° East  Level FlightAware Approximate
Tue 05:07:00 AM 59.2584 -24.2782 69° East  Level FlightAware Approximate
Tue 05:08:00 AM 59.3045 -24.0352 70° East  Level FlightAware Approximate
Tue 05:09:00 AM 59.3500 -23.7917 70° East  Level FlightAware Approximate
Tue 05:10:00 AM 59.3951 -23.5474 70° East  Level FlightAware Approximate
Tue 05:11:00 AM 59.4397 -23.3025 70° East  Level FlightAware Approximate
Tue 05:12:00 AM 59.4839 -23.0570 70° East  Level FlightAware Approximate
Tue 05:13:00 AM 59.5283 -22.8112 70° East  Level FlightAware Approximate
Tue 05:14:00 AM 59.5725 -22.5651 70° East  Level FlightAware Approximate
Tue 05:15:00 AM 59.6163 -22.3183 71° East  Level FlightAware Approximate
Tue 05:16:00 AM 59.6596 -22.0709 71° East  Level FlightAware Approximate
Tue 05:17:00 AM 59.7025 -21.8229 71° East  Level FlightAware Approximate
Tue 05:18:00 AM 59.7449 -21.5742 71° East  Level FlightAware Approximate
Tue 05:19:00 AM 59.7868 -21.3249 71° East  Level FlightAware Approximate
Tue 05:20:00 AM 59.8283 -21.0749 72° East  Level FlightAware Approximate
Tue 05:21:00 AM 59.8692 -20.8244 72° East  Level FlightAware Approximate
Tue 05:22:00 AM 59.9097 -20.5732 72° East  Level FlightAware Approximate
Tue 05:23:00 AM 59.9497 -20.3214 72° East  Level FlightAware Approximate
Tue 05:24:00 AM 59.9893 -20.0691 73° East  Level FlightAware Approximate
Tue 05:25:00 AM 60.0002 -19.8076 90° East  Level FlightAware Approximate
Tue 05:26:00 AM 59.9999 -19.5429 90° East  Level FlightAware Approximate
Tue 05:27:00 AM 59.9991 -19.2782 90° East  Level FlightAware Approximate
Tue 05:28:00 AM 59.9978 -19.0135 90° East  Level FlightAware Approximate
Tue 05:29:00 AM 59.9960 -18.7489 91° East  Level FlightAware Approximate
Tue 05:30:00 AM 59.9937 -18.4842 91° East  Level FlightAware Approximate
Tue 05:31:00 AM 59.9908 -18.2197 91° East  Level FlightAware Approximate
Tue 05:32:00 AM 59.9874 -17.9551 91° East  Level FlightAware Approximate
Tue 05:33:00 AM 59.9834 -17.6907 92° East  Level FlightAware Approximate
Tue 05:34:00 AM 59.9790 -17.4263 92° East  Level FlightAware Approximate
Tue 05:35:00 AM 59.9740 -17.1619 92° East  Level FlightAware Approximate
Tue 05:36:00 AM 59.9684 -16.8977 92° East  Level FlightAware Approximate
Tue 05:37:00 AM 59.9624 -16.6336 93° East  Level FlightAware Approximate
Tue 05:38:00 AM 59.9558 -16.3695 93° East  Level FlightAware Approximate
Tue 05:39:00 AM 59.9487 -16.1056 93° East  Level FlightAware Approximate
Tue 05:40:00 AM 59.9411 -15.8417 93° East  Level FlightAware Approximate
Tue 05:41:00 AM 59.9329 -15.5780 93° East  Level FlightAware Approximate
Tue 05:42:00 AM 59.9242 -15.3145 94° East  Level FlightAware Approximate
Tue 05:43:00 AM 59.9150 -15.0511 94° East  Level FlightAware Approximate
Tue 05:44:00 AM 59.9053 -14.7878 94° East  Level FlightAware Approximate
Tue 05:45:00 AM 59.8950 -14.5247 94° East  Level FlightAware Approximate
Tue 05:46:00 AM 59.8842 -14.2617 95° East  Level FlightAware Approximate
Tue 05:47:00 AM 59.8729 -13.9990 95° East  Level FlightAware Approximate
Tue 05:47:26 AM 60.0430 -11.9700 95° East 472 543 39,000  Level FlightAware ADS-B
Tue 05:48:00 AM 59.8611 -13.7364 95° East  Level FlightAware Approximate
Tue 05:48:05 AM 60.0410 -11.8250 92° East 472 543 39,000  Level FlightAware ADS-B
Tue 05:48:53 AM 60.0370 -11.6470 92° East 472 543 39,000  Level FlightAware ADS-B
Tue 05:49:29 AM 60.0350 -11.5130 92° East 472 543 39,000  Level FlightAware ADS-B
Tue 05:50:02 AM 60.0260 -11.2890 95° East 474 545 39,000  Level FlightAware ADS-B
Tue 05:50:59 AM 60.0210 -11.0670 92° East 474 545 39,000  Level FlightAware ADS-B
Tue 05:51:42 AM 60.0130 -10.8440 94° East 472 543 39,000  Level FlightAware ADS-B
Tue 05:52:22 AM 60.0070 -10.6710 94° East 474 545 39,000  Level FlightAware ADS-B
Tue 05:53:08 AM 60.0010 -10.4860 94° East 475 547 39,000  Level FlightAware ADS-B
Tue 05:53:48 AM 59.9940 -10.2970 94° East 475 547 39,000  Level FlightAware ADS-B
Tue 05:54:24 AM 59.9880 -10.1390 94° East 475 547 39,000  Level FlightAware ADS-B
Tue 05:55:08 AM 59.9800 -9.9470 95° East 470 541 39,000  Level FlightAware ADS-B
Tue 05:55:44 AM 59.9760 -9.8100 93° East 468 539 39,000  Level FlightAware ADS-B
Tue 05:56:24 AM 59.9690 -9.6230 94° East 468 539 39,000  Level FlightAware ADS-B
Tue 05:57:09 AM 59.9620 -9.4330 94° East 468 539 39,000  Level FlightAware ADS-B
Tue 05:57:49 AM 59.9550 -9.2540 94° East 469 540 39,000  Level FlightAware ADS-B
Tue 05:58:44 AM 59.9449 -9.0098 94° East 472 543 39,000  Level FlightAware UK
Tue 05:58:44 AM 59.9470 -9.0560 94° East 469 540 39,000  Level FlightAware ADS-B
Tue 05:59:14 AM 59.9395 -8.8819 94° East 474 545 39,000  Level FlightAware UK
Tue 05:59:44 AM 59.9334 -8.7551 95° East 470 541 39,000  Level FlightAware UK
Tue 05:59:55 AM 59.9340 -8.7460 95° East 469 540 39,000  Level FlightAware ADS-B
Tue 06:00:32 AM 59.9270 -8.5830 95° East 470 541 39,000  Level FlightAware ADS-B
Tue 06:01:19 AM 59.9170 -8.3770 95° East 472 543 39,000  Level FlightAware ADS-B
Tue 06:01:20 AM 59.9158 -8.3389 95° East 476 548 39,000  Level FlightAware UK
Tue 06:01:56 AM 59.9082 -8.1836 95° East 470 541 39,000  Level FlightAware UK
Tue 06:02:04 AM 59.9080 -8.1850 95° East 470 541 39,000  Level FlightAware ADS-B
Tue 06:02:42 AM 59.8990 -8.0130 96° East 473 544 39,000  Level FlightAware ADS-B
Tue 06:03:22 AM 59.8900 -7.8340 96° East 474 545 39,000  Level FlightAware ADS-B
Tue 06:04:06 AM 59.8800 -7.6310 96° East 474 545 39,000  Level FlightAware ADS-B
Tue 06:04:09 AM 59.8792 -7.6131 96° East 474 545 39,000  Level FlightAware UK
Tue 06:04:39 AM 59.8722 -7.4834 96° East 474 545 39,000  Level FlightAware UK
Tue 06:04:46 AM 59.8710 -7.4570 96° East 472 543 39,000  Level FlightAware ADS-B
Tue 06:05:31 AM 59.8600 -7.2660 96° East 470 541 39,000  Level FlightAware ADS-B
Tue 06:06:14 AM 59.8520 -7.1130 96° East 472 543 39,000  Level FlightAware ADS-B
Tue 06:06:54 AM 59.8420 -6.9450 97° East 473 544 39,000  Level FlightAware ADS-B
Tue 06:07:37 AM 59.8290 -6.7260 97° East 473 544 39,000  Level FlightAware ADS-B
Tue 06:08:13 AM 59.8190 -6.5610 97° East 473 544 39,000  Level FlightAware ADS-B
Tue 06:08:54 AM 59.8080 -6.3860 97° East 473 544 39,000  Level FlightAware ADS-B
Tue 06:09:33 AM 59.7978 -6.2174 97° East 472 543 39,000  Level FlightAware UK
Tue 06:09:39 AM 59.7960 -6.1920 97° East 474 545 39,000  Level FlightAware ADS-B
Tue 06:10:15 AM 59.7860 -6.0370 97° East 474 545 39,000  Level FlightAware ADS-B
Tue 06:10:55 AM 59.7750 -5.8670 97° East 476 548 39,000  Level FlightAware ADS-B
Tue 06:11:37 AM 59.7630 -5.6910 98° East 476 548 39,000  Level FlightAware ADS-B
Tue 06:12:15 AM 59.7540 -5.5540 97° East 475 547 39,000  Level FlightAware ADS-B
Tue 06:12:59 AM 59.7410 -5.3680 98° East 475 547 39,000  Level FlightAware ADS-B
Tue 06:13:39 AM 59.7261 -5.1575 98° East 472 543 39,000  Level FlightAware UK
Tue 06:13:40 AM 59.7290 -5.1980 98° East 476 548 39,000  Level FlightAware ADS-B
Tue 06:14:23 AM 59.7120 -4.9690 98° East 477 549 39,000  Level FlightAware ADS-B
Tue 06:15:08 AM 59.6980 -4.7740 98° East 476 548 39,000  Level FlightAware ADS-B
Tue 06:15:40 AM 59.6870 -4.6370 99° East 476 548 39,000  Level FlightAware ADS-B
Tue 06:16:21 AM 59.6737 -4.4595 99° East 470 541 39,000  Level FlightAware UK
Tue 06:16:22 AM 59.6740 -4.4630 99° East 475 547 39,000  Level FlightAware ADS-B
Tue 06:17:05 AM 59.6590 -4.2740 99° East 475 547 39,000  Level FlightAware ADS-B
Tue 06:17:33 AM 59.6500 -4.1590 99° East 476 548 39,000  Level FlightAware ADS-B
Tue 06:18:21 AM 59.6326 -3.9456 99° East 470 541 39,000  Level FlightAware UK
Tue 06:18:34 AM 59.6320 -3.9320 99° East 476 548 39,000  Level FlightAware ADS-B
Tue 06:19:15 AM 59.6170 -3.7500 99° East 476 548 39,000  Level FlightAware ADS-B
Tue 06:19:55 AM 59.6030 -3.5840 99° East 475 547 39,000  Level FlightAware ADS-B
Tue 06:20:43 AM 59.5820 -3.3450 100° East 477 549 39,000  Level FlightAware ADS-B
Tue 06:21:23 AM 59.5670 -3.1710 100° East 479 551 39,000  Level FlightAware ADS-B
Tue 06:22:07 AM 59.5500 -2.9810 100° East 480 552 39,000  Level FlightAware ADS-B
Tue 06:22:37 AM 59.5390 -2.8580 100° East 479 551 39,000  Level FlightAware ADS-B
Tue 06:23:22 AM 59.5208 -2.6590 100° East 474 545 39,000  Level FlightAware UK
Tue 06:23:23 AM 59.5210 -2.6580 100° East 477 549 39,000  Level FlightAware ADS-B
Tue 06:23:58 AM 59.5067 -2.5062 100° East 472 543 39,000  Level FlightAware UK
Tue 06:24:03 AM 59.5050 -2.4900 100° East 476 548 39,000  Level FlightAware ADS-B
Tue 06:24:36 AM 59.4960 -2.3860 100° East 476 548 39,000  Level FlightAware ADS-B
Tue 06:25:21 AM 59.4790 -2.2060 100° East 477 549 39,000  Level FlightAware ADS-B
Tue 06:26:05 AM 59.4600 -2.0130 101° East 478 550 39,000  Level FlightAware ADS-B
Tue 06:26:44 AM 59.4440 -1.8530 101° East 478 550 39,000  Level FlightAware ADS-B
Tue 06:27:24 AM 59.4260 -1.6740 101° East 480 552 39,000  Level FlightAware ADS-B
Tue 06:27:28 AM 59.4199 -1.6114 101° East 476 548 39,000  Level FlightAware UK
Tue 06:28:05 AM 59.4042 -1.4572 101° East 476 548 39,000  Level FlightAware UK
Tue 06:28:09 AM 59.4080 -1.4880 101° East 479 551 39,000  Level FlightAware ADS-B
Tue 06:29:05 AM 59.3781 -1.2023 101° East 474 545 39,000  Level FlightAware UK
Tue 06:29:05 AM 59.3840 -1.2570 101° East 477 549 39,000  Level FlightAware ADS-B
Tue 06:29:35 AM 59.3648 -1.0755 101° East 472 543 39,000  Level FlightAware UK
Tue 06:29:42 AM 59.3670 -1.0910 101° East 477 549 39,000  Level FlightAware ADS-B
Tue 06:30:21 AM 59.3510 -0.9410 102° East 477 549 39,000  Level FlightAware ADS-B
Tue 06:31:04 AM 59.3310 -0.7600 102° East 478 550 39,000  Level FlightAware ADS-B
Tue 06:31:33 AM 59.3180 -0.6310 102° East 477 549 39,000  Level FlightAware ADS-B
Tue 06:31:35 AM 59.3107 -0.5683 102° East 474 545 39,000  Level FlightAware UK
Tue 06:32:17 AM 59.2910 -0.3922 102° East 476 548 39,000  Level FlightAware UK
Tue 06:32:17 AM 59.2980 -0.4570 102° East 478 550 39,000  Level FlightAware ADS-B
Tue 06:32:53 AM 59.2741 -0.2397 102° East 476 548 39,000  Level FlightAware UK
Tue 06:33:02 AM 59.2710 -0.2120 102° East 476 548 39,000  Level FlightAware ADS-B
Tue 06:33:42 AM 59.2520 -0.0400 102° East 475 547 39,000  Level FlightAware ADS-B
Tue 06:34:23 AM 59.2350 0.1040 103° East 473 544 39,000  Level FlightAware ADS-B
Tue 06:34:53 AM 59.2165 0.2646 103° East 472 543 39,000  Level FlightAware UK
Tue 06:35:07 AM 59.2100 0.3210 103° East 475 547 39,000  Level FlightAware ADS-B
Tue 06:35:47 AM 59.1930 0.4660 103° East 475 547 39,000  Level FlightAware ADS-B
Tue 06:36:32 AM 59.1680 0.6730 103° East 476 548 39,000  Level FlightAware ADS-B
Tue 06:37:12 AM 59.1481 0.8421 103° East 474 545 39,000  Level FlightAware UK
Tue 06:37:12 AM 59.1480 0.8380 103° East 479 551 39,000  Level FlightAware ADS-B
Tue 06:37:48 AM 59.1296 0.9930 103° East 472 543 39,000  Level FlightAware UK
Tue 06:37:52 AM 59.1290 0.9940 103° East 480 552 39,000  Level FlightAware ADS-B
Tue 06:38:38 AM 59.1050 1.1910 103° East 480 552 39,000  Level FlightAware ADS-B
Tue 06:39:30 AM 59.0765 1.4209 103° East 474 545 39,000  Level FlightAware UK
Tue 06:39:32 AM 59.0760 1.4260 103° East 479 551 39,000  Level FlightAware ADS-B
Tue 06:40:06 AM 59.0572 1.5718 103° East 474 545 39,000  Level FlightAware UK
Tue 06:40:17 AM 59.0520 1.6130 103° East 479 551 39,000  Level FlightAware ADS-B
Tue 06:41:01 AM 59.0160 1.7890 112° Southeast 477 549 39,000  Level FlightAware ADS-B
Tue 06:41:41 AM 58.9750 1.9400 118° Southeast 476 548 39,000  Level FlightAware ADS-B
Tue 06:42:26 AM 58.9280 2.1070 119° Southeast 477 549 39,000  Level FlightAware ADS-B
Tue 06:43:00 AM 58.8913 2.2387 119° Southeast 472 543 39,000  Level FlightAware UK
Tue 06:43:05 AM 58.8870 2.2550 119° Southeast 479 551 39,000  Level FlightAware ADS-B
Tue 06:43:41 AM 58.8490 2.3910 118° Southeast 481 554 39,000  Level FlightAware ADS-B
Tue 06:44:21 AM 58.8070 2.5400 119° Southeast 481 554 39,000  Level FlightAware ADS-B
Tue 06:45:07 AM 58.7580 2.7140 118° Southeast 482 555 39,000  Level FlightAware ADS-B
Tue 06:45:39 AM 58.7240 2.8350 118° Southeast 481 554 39,000  Level FlightAware ADS-B
Tue 06:46:23 AM 58.6770 3.0000 119° Southeast 481 554 39,000  Level FlightAware ADS-B
Tue 06:47:03 AM 58.6350 3.1480 119° Southeast 482 555 39,000  Level FlightAware ADS-B
Tue 06:47:43 AM 58.5912 3.2988 119° Southeast 472 543 39,000  Level FlightAware UK
Tue 06:47:45 AM 58.5890 3.3060 119° Southeast 483 556 39,000  Level FlightAware ADS-B
Tue 06:48:19 AM 58.5523 3.4331 119° Southeast 470 541 39,000  Level FlightAware UK
Tue 06:48:29 AM 58.5410 3.4710 119° Southeast 485 558 39,000  Level FlightAware ADS-B
Tue 06:49:09 AM 58.4970 3.6200 119° Southeast 486 559 39,000  Level FlightAware ADS-B
Tue 06:49:53 AM 58.4490 3.7850 119° Southeast 486 559 39,000  Level FlightAware ADS-B
Tue 06:50:23 AM 58.4150 3.8980 120° Southeast 487 560 39,000  Level FlightAware ADS-B
Tue 06:51:09 AM 58.3650 4.0660 120° Southeast 486 559 39,000  Level FlightAware ADS-B
Tue 06:51:53 AM 58.3160 4.2280 120° Southeast 485 558 39,000  Level FlightAware ADS-B
Tue 06:52:25 AM 58.2800 4.3480 120° Southeast 484 557 39,000  Level FlightAware ADS-B
Tue 06:53:09 AM 58.2310 4.5100 120° Southeast 486 559 39,000  Level FlightAware ADS-B
Tue 06:53:49 AM 58.1860 4.6570 120° Southeast 487 560 39,000  Level FlightAware ADS-B
Tue 06:54:33 AM 58.1360 4.8170 121° Southeast 488 562 39,000  Level FlightAware ADS-B
Tue 06:55:13 AM 58.0890 4.9680 120° Southeast 490 564 39,000  Level FlightAware ADS-B
Tue 06:55:58 AM 58.0400 5.1260 120° Southeast 489 563 39,000  Level FlightAware ADS-B
Tue 06:56:37 AM 57.9940 5.2720 121° Southeast 487 560 39,000  Level FlightAware ADS-B
Tue 06:57:17 AM 57.9480 5.4180 121° Southeast 485 558 39,000  Level FlightAware ADS-B
Tue 06:57:53 AM 57.9060 5.5500 121° Southeast 484 557 39,000  Level FlightAware ADS-B
Tue 06:58:37 AM 57.8560 5.7060 121° Southeast 484 557 39,000  Level FlightAware ADS-B
Tue 06:59:18 AM 57.8100 5.8490 121° Southeast 485 558 39,000  Level FlightAware ADS-B
Tue 06:59:49 AM 57.7720 5.9650 122° Southeast 486 559 39,000  Level FlightAware ADS-B
Tue 07:00:37 AM 57.7170 6.1350 121° Southeast 487 560 39,000  Level FlightAware ADS-B
Tue 07:01:13 AM 57.6740 6.2630 122° Southeast 487 560 39,000  Level FlightAware ADS-B
Tue 07:01:59 AM 57.6200 6.4270 122° Southeast 486 559 39,000  Level FlightAware ADS-B
Tue 07:02:43 AM 57.5670 6.5860 122° Southeast 485 558 39,000  Level FlightAware ADS-B
Tue 07:03:23 AM 57.5210 6.7250 122° Southeast 486 559 39,000  Level FlightAware ADS-B
Tue 07:04:07 AM 57.4680 6.8830 122° Southeast 488 562 39,000  Level FlightAware ADS-B
Tue 07:04:39 AM 57.4310 6.9910 122° Southeast 488 562 39,000  Level FlightAware ADS-B
Tue 07:05:24 AM 57.3750 7.1560 122° Southeast 489 563 39,000  Level FlightAware ADS-B
Tue 07:06:04 AM 57.3280 7.2920 123° Southeast 488 562 39,000  Level FlightAware ADS-B
Tue 07:06:40 AM 57.2840 7.4200 122° Southeast 487 560 39,000  Level FlightAware ADS-B
Tue 07:07:24 AM 57.2310 7.5740 122° Southeast 486 559 39,000  Level FlightAware ADS-B
Tue 07:08:04 AM 57.1820 7.7160 122° Southeast 487 560 39,000  Level FlightAware ADS-B
Tue 07:08:40 AM 57.1380 7.8390 123° Southeast 488 562 39,000  Level FlightAware ADS-B
Tue 07:09:20 AM 57.0900 7.9770 123° Southeast 490 564 39,000  Level FlightAware ADS-B
Tue 07:10:04 AM 57.0340 8.1340 123° Southeast 490 564 39,000  Level FlightAware ADS-B
Tue 07:10:45 AM 56.9840 8.2740 123° Southeast 490 564 39,000  Level FlightAware ADS-B
Tue 07:11:27 AM 56.9320 8.4190 123° Southeast 489 563 39,000  Level FlightAware ADS-B
Tue 07:12:11 AM 56.8780 8.5700 123° Southeast 489 563 39,000  Level FlightAware ADS-B
Tue 07:12:51 AM 56.8280 8.7070 124° Southeast 488 562 39,000  Level FlightAware ADS-B
Tue 07:13:23 AM 56.7880 8.8160 124° Southeast 489 563 39,000 -568 Level FlightAware ADS-B
Tue 07:14:05 AM 56.7350 8.9600 124° Southeast 490 564 38,300 -1,047 Descending FlightAware ADS-B
Tue 07:14:49 AM 56.6790 9.1130 124° Southeast 497 572 37,500 -1,023 Descending FlightAware ADS-B
Tue 07:15:33 AM 56.6220 9.2650 124° Southeast 493 567 36,800 -1,643 Descending FlightAware ADS-B
Tue 07:16:13 AM 56.5730 9.3970 124° Southeast 488 562 35,200 -2,850 Descending FlightAware ADS-B
Tue 07:16:53 AM 56.5210 9.5350 124° Southeast 492 566 33,000 -3,035 Descending FlightAware ADS-B
Tue 07:17:38 AM 56.4630 9.6870 125° Southeast 489 563 30,900 -2,697 Descending FlightAware ADS-B
Tue 07:18:22 AM 56.4090 9.8340 124° Southeast 479 551 29,000 -2,500 Descending FlightAware ADS-B
Tue 07:19:02 AM 56.3630 9.9680 122° Southeast 469 540 27,400 -2,370 Descending FlightAware ADS-B
Tue 07:19:43 AM 56.3170 10.1000 122° Southeast 459 528 25,800 -2,357 Descending FlightAware ADS-B
Tue 07:20:26 AM 56.2680 10.2390 122° Southeast 449 517 24,100 -2,313 Descending FlightAware ADS-B
Tue 07:21:06 AM 56.2250 10.3630 122° Southeast 441 507 22,600 -2,214 Descending FlightAware ADS-B
Tue 07:21:50 AM 56.1770 10.4960 123° Southeast 429 494 21,000 -2,175 Descending FlightAware ADS-B
Tue 07:22:26 AM 56.1380 10.6050 123° Southeast 421 484 19,700 -2,132 Descending FlightAware ADS-B
Tue 07:23:06 AM 56.0970 10.7190 123° Southeast 414 476 18,300 -2,100 Descending FlightAware ADS-B
Tue 07:23:46 AM 56.0550 10.8350 123° Southeast 407 468 16,900 -1,880 Descending FlightAware ADS-B
Tue 07:24:29 AM 56.0130 10.9530 122° Southeast 396 456 15,700 -1,765 Descending FlightAware ADS-B
Tue 07:25:11 AM 55.9720 11.0650 123° Southeast 388 447 14,400 -1,756 Descending FlightAware ADS-B
Tue 07:25:51 AM 55.9320 11.1730 123° Southeast 379 436 13,300 -1,643 Descending FlightAware ADS-B
Tue 07:26:35 AM 55.8910 11.2860 123° Southeast 369 425 12,100 -1,643 Descending FlightAware ADS-B
Tue 07:27:15 AM 55.8540 11.3860 123° Southeast 364 419 11,000 -1,575 Descending FlightAware ADS-B
Tue 07:27:55 AM 55.8160 11.4870 124° Southeast 363 418 10,000 -1,500 Descending FlightAware ADS-B
Tue 07:28:23 AM 55.7910 11.5560 123° Southeast 358 412 9,300 -1,714 Descending FlightAware ADS-B
Tue 07:28:51 AM 55.7650 11.6250 124° Southeast 358 412 8,400 -1,962 Descending FlightAware ADS-B
Tue 07:29:15 AM 55.7430 11.6840 124° Southeast 354 407 7,600 -1,895 Descending FlightAware ADS-B
Tue 07:29:48 AM 55.7130 11.7640 124° Southeast 347 399 6,600 -1,821 Descending FlightAware ADS-B
Tue 07:30:11 AM 55.6940 11.8150 123° Southeast 343 395 5,900 -1,585 Descending FlightAware ADS-B
Tue 07:30:41 AM 55.6680 11.8830 124° Southeast 332 382 5,200 -1,304 Descending FlightAware ADS-B
Tue 07:30:57 AM 55.6540 11.9190 125° Southeast 327 376 4,900 -1,227 Descending FlightAware ADS-B
Tue 07:31:25 AM 55.6310 11.9810 123° Southeast 319 367 4,300 -1,071 Descending FlightAware ADS-B
Tue 07:31:53 AM 55.6080 12.0410 124° Southeast 301 346 3,900 -612 Descending FlightAware ADS-B
Tue 07:32:14 AM 55.5930 12.0810 124° Southeast 280 322 3,800 -125 Descending FlightAware ADS-B
Tue 07:32:41 AM 55.5740 12.1320 123° Southeast 267 307 3,800  Level FlightAware ADS-B
Tue 07:33:11 AM 55.5530 12.1850 125° Southeast 264 304 3,800  Level FlightAware ADS-B
Tue 07:33:39 AM 55.5340 12.2340 124° Southeast 253 291 3,800 -429 Level FlightAware ADS-B
Tue 07:34:07 AM 55.5170 12.2810 123° Southeast 244 281 3,400 -875 Descending FlightAware ADS-B
Tue 07:34:27 AM 55.5040 12.3140 125° Southeast 243 280 3,100 -1,125 Descending FlightAware ADS-B
Tue 07:34:39 AM 55.4980 12.3350 117° Southeast 241 277 2,800 -1,071 Descending FlightAware ADS-B
Tue 07:34:55 AM 55.4960 12.3650 97° East 238 274 2,600 -818 Descending FlightAware ADS-B
Tue 07:35:23 AM 55.4940 12.4180 94° East 216 249 2,200 -686 Descending FlightAware ADS-B
Tue 07:36:05 AM 55.5040 12.4760 73° East 183 211 1,800 -429 Descending FlightAware ADS-B
Tue 07:36:33 AM 55.5240 12.4990 33° Northeast 181 208 1,700 -577 Descending FlightAware ADS-B
Tue 07:36:57 AM 55.5390 12.5210 40° Northeast 170 196 1,300 -1,050 Descending FlightAware ADS-B
Tue 07:37:13 AM 55.5480 12.5360 43° Northeast 161 185 1,000 -1,000 Descending FlightAware ADS-B
Tue 07:37:39 AM 55.5620 12.5570 40° Northeast 145 167 600 -750 Descending FlightAware ADS-B
Tue 07:38:09 AM 55.5770 12.5800 41° Northeast 145 167 300 -682 Descending FlightAware ADS-B
Tue 07:38:23 AM 55.5840 12.5910 42° Northeast 145 167 100 -857 Descending FlightAware ADS-B
Tue 07:38:59 AM 55.5990 12.6150 42° Northeast 146 168 -167 Descending FlightAware ADS-B
Tue 07:39:40 AM 55.6110 12.6330 40° Northeast 52 60  Level FlightAware ADS-B
Tue 07:40:15 AM 55.6160 12.6410 42° Northeast 23 26  Level FlightAware ADS-B
Tue 07:40:28 AM 55.6170 12.6410 360° North 21 24  Level FlightAware ADS-B
Tue 07:43:00 AM 55.6167 12.6500 114° Southeast  Level FlightAware Approximate

Login

Don't have an account? Register now (free) for customized features, flight alerts, and more!